Terminal Aerodrome Forecast
Issued by NWS

Home | Current Version | Previous Version | Text Only | Print | Product List | Glossary On
Versions: 1 2 3 4 5 6 7 8 9 10 11 12 13 14 15 16 17 18 19 20 21 22 23
000
FTUS43 KJKL 182324
TAFSME
TAF
KSME 182324Z 1900/1924 VRB04KT P6SM BKN150
     FM190800 12004KT 6SM -SHRA BR BKN035 OVC090
     FM191300 14008KT 5SM -SHRA BR BKN015 OVC090
     FM191500 20009KT 6SM -SHRA BR VCTS BKN015CB BKN120
     FM192000 23012G21KT P6SM VCTS BKN030CB BKN250=

USA.gov is the U.S. government's official web portal to all federal, state and local government web resources and services.